createdAt,value
2018-06-03T00:00:16.136Z,17.80
2018-06-03T00:02:45.021Z,17.90
2018-06-03T00:05:14.577Z,17.90
2018-06-03T00:07:42.826Z,17.80
2018-06-03T00:10:11.618Z,17.60
2018-06-03T00:12:39.784Z,17.70
2018-06-03T00:15:07.964Z,17.40
2018-06-03T00:17:36.798Z,17.60
2018-06-03T00:20:04.896Z,17.50
2018-06-03T00:22:34.044Z,17.60
2018-06-03T00:25:02.210Z,17.50
2018-06-03T00:27:30.368Z,17.50
2018-06-03T00:29:58.464Z,17.60
2018-06-03T00:32:26.563Z,17.60
2018-06-03T00:34:54.680Z,17.50
2018-06-03T00:37:23.536Z,17.30
2018-06-03T00:39:51.682Z,17.10
2018-06-03T00:42:19.873Z,17.10
2018-06-03T00:44:47.951Z,16.90
2018-06-03T00:47:16.291Z,16.90
2018-06-03T00:49:45.144Z,16.90
2018-06-03T00:52:13.240Z,17.00
2018-06-03T00:54:41.320Z,17.00
2018-06-03T00:57:11.853Z,16.90
2018-06-03T00:59:44.463Z,16.80
2018-06-03T01:02:13.470Z,16.90
2018-06-03T01:04:45.395Z,16.80
2018-06-03T01:07:13.504Z,16.90
2018-06-03T01:09:41.726Z,16.80
2018-06-03T01:12:11.465Z,16.80
2018-06-03T01:14:39.585Z,16.60
2018-06-03T01:17:08.445Z,16.40
2018-06-03T01:19:36.553Z,16.40
2018-06-03T01:22:05.644Z,16.40
2018-06-03T01:24:33.753Z,16.50
2018-06-03T01:27:01.984Z,16.30
2018-06-03T01:29:30.844Z,16.20
2018-06-03T01:31:58.945Z,16.20
2018-06-03T01:34:27.180Z,16.20
2018-06-03T01:36:55.284Z,16.20
2018-06-03T01:39:24.169Z,16.20
2018-06-03T01:41:52.512Z,16.20
2018-06-03T01:44:24.048Z,16.20
2018-06-03T01:46:52.164Z,16.20
2018-06-03T01:49:20.492Z,16.10
2018-06-03T01:51:48.811Z,16.20
2018-06-03T01:54:17.092Z,16.10
2018-06-03T01:56:45.217Z,16.00
2018-06-03T01:59:13.444Z,16.10
2018-06-03T02:01:41.534Z,16.00
2018-06-03T02:04:10.406Z,16.10
2018-06-03T02:06:38.489Z,16.20
2018-06-03T02:09:06.672Z,16.30
2018-06-03T02:11:34.808Z,16.30
2018-06-03T02:14:02.901Z,16.10
2018-06-03T02:16:31.204Z,16.20
2018-06-03T02:19:00.861Z,16.30
2018-06-03T02:21:28.960Z,16.30
2018-06-03T02:23:57.057Z,16.20
2018-06-03T02:26:25.928Z,16.30
2018-06-03T02:28:55.244Z,16.10
2018-06-03T02:31:24.164Z,16.10
2018-06-03T02:33:52.263Z,16.20
2018-06-03T02:36:20.384Z,16.10
2018-06-03T02:38:49.274Z,16.10
2018-06-03T02:41:18.122Z,16.10
2018-06-03T02:43:46.242Z,16.00
2018-06-03T02:46:14.351Z,15.90
2018-06-03T02:48:42.462Z,15.70
2018-06-03T02:51:10.562Z,15.80
2018-06-03T02:53:39.436Z,15.70
2018-06-03T02:56:07.568Z,15.60
2018-06-03T02:58:35.896Z,15.50
2018-06-03T03:01:03.975Z,15.60
2018-06-03T03:03:32.412Z,15.50
2018-06-03T03:06:00.510Z,15.60
2018-06-03T03:08:28.994Z,15.60
2018-06-03T03:10:57.429Z,15.40
2018-06-03T03:13:25.511Z,15.40
2018-06-03T03:15:53.705Z,15.40
2018-06-03T03:18:21.883Z,15.50
2018-06-03T03:20:50.007Z,15.50
2018-06-03T03:23:18.095Z,15.50
2018-06-03T03:25:46.171Z,15.60
2018-06-03T03:28:14.322Z,15.50
2018-06-03T03:30:45.784Z,15.40
2018-06-03T03:33:13.884Z,15.50
2018-06-03T03:35:41.984Z,15.50
2018-06-03T03:38:10.153Z,15.50
2018-06-03T03:40:38.300Z,15.40
2018-06-03T03:43:10.384Z,15.30
2018-06-03T03:45:38.467Z,15.20
2018-06-03T03:48:06.896Z,15.20
2018-06-03T03:50:34.995Z,15.40
2018-06-03T03:53:03.228Z,15.40
2018-06-03T03:55:31.540Z,15.40
2018-06-03T03:57:59.644Z,15.30
2018-06-03T04:00:27.753Z,15.20
2018-06-03T04:02:56.145Z,15.20
2018-06-03T04:05:25.036Z,15.10
2018-06-03T04:07:53.870Z,15.20
2018-06-03T04:10:22.341Z,15.20
2018-06-03T04:12:51.296Z,15.40
2018-06-03T04:15:19.689Z,15.40
2018-06-03T04:17:48.527Z,15.30
2018-06-03T04:20:16.635Z,15.40
2018-06-03T04:22:44.788Z,15.50
2018-06-03T04:25:13.788Z,15.50
2018-06-03T04:27:45.797Z,15.40
2018-06-03T04:30:14.013Z,15.40
2018-06-03T04:32:42.176Z,15.40
2018-06-03T04:35:10.416Z,15.40
2018-06-03T04:37:39.425Z,15.30
2018-06-03T04:40:07.499Z,15.40
2018-06-03T04:42:35.617Z,15.40
2018-06-03T04:45:03.715Z,15.50
2018-06-03T04:47:32.588Z,15.40
2018-06-03T04:50:00.761Z,15.50
2018-06-03T04:52:28.868Z,15.40
2018-06-03T04:54:57.714Z,15.50
2018-06-03T04:57:25.784Z,15.50
2018-06-03T04:59:53.877Z,15.50
2018-06-03T05:02:21.983Z,15.60
2018-06-03T05:04:50.100Z,15.70
2018-06-03T05:07:18.406Z,15.70
2018-06-03T05:09:46.502Z,15.80
2018-06-03T05:12:14.587Z,16.00
2018-06-03T05:14:42.673Z,16.10
2018-06-03T05:17:11.307Z,16.10
2018-06-03T05:19:39.413Z,16.30
2018-06-03T05:22:07.504Z,16.50
2018-06-03T05:24:35.613Z,16.50
2018-06-03T05:27:04.416Z,16.50
2018-06-03T05:29:35.972Z,16.40
2018-06-03T05:32:04.054Z,16.50
2018-06-03T05:34:32.156Z,16.50
2018-06-03T05:37:00.256Z,16.40
2018-06-03T05:39:28.401Z,16.60
2018-06-03T05:41:56.532Z,16.70
2018-06-03T05:44:24.630Z,16.80
2018-06-03T05:46:52.872Z,16.80
2018-06-03T05:49:21.017Z,16.90
2018-06-03T05:51:49.908Z,16.90
2018-06-03T05:54:19.242Z,17.00
2018-06-03T05:56:47.369Z,17.00
2018-06-03T05:59:15.465Z,17.00
2018-06-03T06:01:43.616Z,17.10
2018-06-03T06:04:12.001Z,17.20
2018-06-03T06:06:40.929Z,17.30
2018-06-03T06:09:09.013Z,17.50
2018-06-03T06:11:37.151Z,17.60
2018-06-03T06:14:05.271Z,17.70
2018-06-03T06:16:33.599Z,17.80
2018-06-03T06:19:01.707Z,17.80
2018-06-03T06:21:29.807Z,17.80
2018-06-03T06:23:57.924Z,17.80
2018-06-03T06:26:26.077Z,17.80
2018-06-03T06:28:54.159Z,17.80
2018-06-03T06:31:23.004Z,17.70
2018-06-03T06:33:51.702Z,17.70
2018-06-03T06:36:19.803Z,17.80
2018-06-03T06:38:47.917Z,17.90
2018-06-03T06:41:16.360Z,18.00
2018-06-03T06:43:45.213Z,17.90
2018-06-03T06:46:13.484Z,17.90
2018-06-03T06:48:41.636Z,17.90
2018-06-03T06:51:10.527Z,18.00
2018-06-03T06:53:38.615Z,18.20
2018-06-03T06:56:06.972Z,18.20
2018-06-03T06:58:35.046Z,18.30
2018-06-03T07:01:03.381Z,18.40
2018-06-03T07:03:31.463Z,18.50
2018-06-03T07:05:59.662Z,18.50
2018-06-03T07:08:27.760Z,18.50
2018-06-03T07:10:56.585Z,18.60
2018-06-03T07:13:24.663Z,18.70
2018-06-03T07:15:52.898Z,18.70
2018-06-03T07:18:20.968Z,18.80
2018-06-03T07:20:49.910Z,18.90
2018-06-03T07:23:18.209Z,19.00
2018-06-03T07:25:47.532Z,19.00
2018-06-03T07:28:15.636Z,19.00
2018-06-03T07:30:43.765Z,19.10
2018-06-03T07:33:11.936Z,19.00
2018-06-03T07:35:40.036Z,18.90
2018-06-03T07:38:11.825Z,18.80
2018-06-03T07:40:40.219Z,18.90
2018-06-03T07:43:08.312Z,18.90
2018-06-03T07:45:36.623Z,18.90
2018-06-03T07:48:05.004Z,18.80
2018-06-03T07:50:36.737Z,18.90
2018-06-03T07:53:05.005Z,18.90
2018-06-03T07:55:34.927Z,19.00
2018-06-03T07:58:03.008Z,19.10
2018-06-03T08:00:31.452Z,19.20
2018-06-03T08:02:59.936Z,19.20
2018-06-03T08:05:28.213Z,19.20
2018-06-03T08:07:56.304Z,19.10
2018-06-03T08:10:24.856Z,19.20
2018-06-03T08:12:52.986Z,19.30
2018-06-03T08:15:21.244Z,19.20
2018-06-03T08:17:49.416Z,19.30
2018-06-03T08:20:18.660Z,19.20
2018-06-03T08:22:46.822Z,19.00
2018-06-03T08:25:15.092Z,18.90
2018-06-03T08:27:43.384Z,19.00
2018-06-03T08:30:12.123Z,19.00
2018-06-03T08:32:41.161Z,18.90
2018-06-03T08:35:09.669Z,18.90
2018-06-03T08:37:38.570Z,18.90
2018-06-03T08:40:06.681Z,18.90
2018-06-03T08:42:34.982Z,18.90
2018-06-03T08:45:03.149Z,19.00
2018-06-03T08:47:31.516Z,19.00
2018-06-03T08:49:59.704Z,19.10
2018-06-03T08:52:27.888Z,19.10
2018-06-03T08:54:57.090Z,19.20
2018-06-03T08:57:25.188Z,19.30
2018-06-03T08:59:54.057Z,19.20
2018-06-03T09:05:01.527Z,19.20
2018-06-03T09:07:29.609Z,19.30
2018-06-03T09:09:58.521Z,19.10
2018-06-03T09:12:26.736Z,19.20
2018-06-03T09:14:54.892Z,19.40
2018-06-03T09:17:23.066Z,19.50
2018-06-03T09:19:51.207Z,19.50
2018-06-03T09:22:19.371Z,19.40
2018-06-03T09:24:48.465Z,19.60
2018-06-03T09:27:16.561Z,19.40
2018-06-03T09:29:45.721Z,19.40
2018-06-03T09:32:14.111Z,19.50
2018-06-03T09:34:42.322Z,19.40
2018-06-03T09:37:10.418Z,19.60
2018-06-03T09:39:39.520Z,19.50
2018-06-03T09:42:09.245Z,19.60
2018-06-03T09:44:37.529Z,19.50
2018-06-03T09:47:06.569Z,19.50
2018-06-03T09:49:34.703Z,19.60
2018-06-03T09:52:03.021Z,19.60
2018-06-03T09:54:32.122Z,19.60
2018-06-03T09:57:02.210Z,19.70
2018-06-03T09:59:33.057Z,19.80
2018-06-03T10:02:01.208Z,19.90
2018-06-03T10:04:29.561Z,20.10
2018-06-03T10:06:58.491Z,20.10
2018-06-03T10:09:28.428Z,20.30
2018-06-03T10:11:57.292Z,20.30
2018-06-03T10:14:25.455Z,20.30
2018-06-03T10:16:53.634Z,20.40
2018-06-03T10:19:22.633Z,20.50
2018-06-03T10:21:52.892Z,20.40
2018-06-03T10:24:22.911Z,20.30
2018-06-03T10:26:54.206Z,20.30
2018-06-03T10:29:23.834Z,20.30
2018-06-03T10:31:52.844Z,20.30
2018-06-03T10:34:22.954Z,20.40
2018-06-03T10:36:51.377Z,20.60
2018-06-03T10:39:20.889Z,20.70
2018-06-03T10:41:49.734Z,20.70
2018-06-03T10:44:18.940Z,20.80
2018-06-03T10:46:48.776Z,20.70
2018-06-03T10:49:16.996Z,20.80
2018-06-03T10:54:22.350Z,21.10
2018-06-03T10:56:52.457Z,21.20
2018-06-03T10:59:22.575Z,21.30
2018-06-03T11:01:52.316Z,21.20
2018-06-03T11:04:22.762Z,21.10
2018-06-03T11:06:53.943Z,21.20
2018-06-03T11:09:25.389Z,21.30
2018-06-03T11:11:56.622Z,21.50
2018-06-03T11:14:27.192Z,21.60
2018-06-03T11:16:56.616Z,21.50
2018-06-03T11:19:26.798Z,21.50
2018-06-03T11:21:57.150Z,21.60
2018-06-03T11:24:27.810Z,21.70
2018-06-03T11:26:58.335Z,21.70
2018-06-03T11:29:28.225Z,21.60
2018-06-03T11:31:58.409Z,21.60
2018-06-03T11:34:28.860Z,21.40
2018-06-03T11:36:58.821Z,21.50
2018-06-03T11:39:28.848Z,21.60
2018-06-03T11:41:59.013Z,21.60
2018-06-03T11:44:29.100Z,21.60
2018-06-03T11:47:00.058Z,21.60
2018-06-03T11:49:30.538Z,21.50
2018-06-03T11:52:00.505Z,21.60
2018-06-03T11:54:30.375Z,21.60
2018-06-03T11:57:04.808Z,21.70
2018-06-03T11:59:46.815Z,21.80
2018-06-03T12:02:17.801Z,21.80
2018-06-03T12:04:48.196Z,21.80
2018-06-03T12:07:18.665Z,21.70
2018-06-03T12:09:49.182Z,21.80
2018-06-03T12:12:19.013Z,21.50
2018-06-03T12:14:48.921Z,21.60
2018-06-03T12:17:19.098Z,21.70
2018-06-03T12:19:48.547Z,21.80
2018-06-03T12:22:18.041Z,22.10
2018-06-03T12:24:48.436Z,22.10
2018-06-03T12:27:20.157Z,22.10
2018-06-03T12:29:50.304Z,22.20
2018-06-03T12:32:22.484Z,22.10
2018-06-03T12:34:52.444Z,21.90
2018-06-03T12:37:22.324Z,22.10
2018-06-03T12:39:52.484Z,22.20
2018-06-03T12:42:23.852Z,22.30
2018-06-03T12:44:53.804Z,22.30
2018-06-03T12:47:23.490Z,22.10
2018-06-03T12:49:53.924Z,22.20
2018-06-03T12:52:25.199Z,22.30
2018-06-03T12:54:55.821Z,22.50
2018-06-03T12:57:25.721Z,22.70
2018-06-03T12:59:55.869Z,22.70
2018-06-03T13:02:25.853Z,22.70
2018-06-03T13:04:56.213Z,22.70
2018-06-03T13:07:27.624Z,22.40
2018-06-03T13:09:57.656Z,22.30
2018-06-03T13:12:28.566Z,22.50
2018-06-03T13:14:58.283Z,22.40
2018-06-03T13:17:27.997Z,22.30
2018-06-03T13:19:58.612Z,22.40
2018-06-03T13:22:28.424Z,22.40
2018-06-03T13:24:59.572Z,22.30
2018-06-03T13:27:29.500Z,22.20
2018-06-03T13:30:01.132Z,22.30
2018-06-03T13:32:33.248Z,22.60
2018-06-03T13:35:02.944Z,22.60
2018-06-03T13:37:34.259Z,23.00
2018-06-03T13:40:04.103Z,23.00
2018-06-03T13:42:34.937Z,23.20
2018-06-03T13:45:04.464Z,23.40
2018-06-03T13:47:34.580Z,23.50
2018-06-03T13:50:05.696Z,23.70
2018-06-03T13:52:36.848Z,23.30
2018-06-03T13:55:08.268Z,23.30
2018-06-03T13:57:40.377Z,23.30
2018-06-03T14:00:10.255Z,23.30
2018-06-03T14:02:40.834Z,23.50
2018-06-03T14:05:10.519Z,23.50
2018-06-03T14:07:40.985Z,23.60
2018-06-03T14:10:11.164Z,23.90
2018-06-03T14:12:41.988Z,23.80
2018-06-03T14:15:13.496Z,23.70
2018-06-03T14:17:58.945Z,23.80
2018-06-03T14:20:32.139Z,23.70
2018-06-03T14:23:02.957Z,23.70
2018-06-03T14:25:38.400Z,23.40
2018-06-03T14:28:12.240Z,23.50
2018-06-03T14:30:44.217Z,23.30
2018-06-03T14:33:16.884Z,22.90
2018-06-03T14:35:46.386Z,23.10
2018-06-03T14:38:18.325Z,23.30
2018-06-03T14:40:49.449Z,23.40
2018-06-03T14:43:24.544Z,23.60
2018-06-03T14:45:54.552Z,23.90
2018-06-03T14:48:24.451Z,24.20
2018-06-03T14:50:56.278Z,24.30
2018-06-03T14:53:30.376Z,24.20
2018-06-03T14:56:00.202Z,24.60
2018-06-03T14:58:30.404Z,24.30
2018-06-03T15:01:00.246Z,24.20
2018-06-03T15:03:30.795Z,24.20
2018-06-03T15:06:05.400Z,24.20
2018-06-03T15:08:36.733Z,24.10
2018-06-03T15:11:07.026Z,24.40
2018-06-03T15:13:40.550Z,24.50
2018-06-03T15:16:11.879Z,24.60
2018-06-03T15:18:43.376Z,24.80
2018-06-03T15:21:14.285Z,24.60
2018-06-03T15:23:50.421Z,24.70
2018-06-03T15:26:19.957Z,24.60
2018-06-03T15:28:54.419Z,24.50
2018-06-03T15:31:24.325Z,24.60
2018-06-03T15:33:54.969Z,24.70
2018-06-03T15:36:27.420Z,24.80
2018-06-03T15:38:56.944Z,25.00
2018-06-03T15:41:26.569Z,24.80
2018-06-03T15:43:56.576Z,24.80
2018-06-03T15:46:26.599Z,25.00
2018-06-03T15:48:58.373Z,25.10
2018-06-03T15:51:28.543Z,25.10
2018-06-03T15:54:01.484Z,25.00
2018-06-03T15:56:33.032Z,25.10
2018-06-03T15:59:02.879Z,25.10
2018-06-03T16:01:34.242Z,25.30
2018-06-03T16:04:05.156Z,25.10
2018-06-03T16:06:35.600Z,25.20
2018-06-03T16:09:11.673Z,25.30
2018-06-03T16:11:43.308Z,25.30
2018-06-03T16:14:17.974Z,25.20
2018-06-03T16:16:48.676Z,24.90
2018-06-03T16:19:18.523Z,25.10
2018-06-03T16:21:51.296Z,25.20
2018-06-03T16:24:21.182Z,25.30
2018-06-03T16:26:54.158Z,25.40
2018-06-03T16:29:24.029Z,25.50
2018-06-03T16:31:54.028Z,25.40
2018-06-03T16:34:24.072Z,25.50
2018-06-03T16:36:57.648Z,25.60
2018-06-03T16:39:29.844Z,25.50
2018-06-03T16:42:27.347Z,25.50
2018-06-03T16:44:59.418Z,25.70
2018-06-03T16:47:31.074Z,25.50
2018-06-03T16:50:01.588Z,25.50
2018-06-03T16:52:32.435Z,25.60
2018-06-03T16:55:03.113Z,25.60
2018-06-03T16:57:34.201Z,25.80
2018-06-03T17:00:06.325Z,25.30
2018-06-03T17:02:37.485Z,25.30
2018-06-03T17:05:08.072Z,25.50
2018-06-03T17:07:39.791Z,25.30
2018-06-03T17:10:09.628Z,25.40
2018-06-03T17:12:47.627Z,25.70
2018-06-03T17:15:18.354Z,25.80
2018-06-03T17:17:59.742Z,25.70
2018-06-03T17:20:30.233Z,25.50
2018-06-03T17:22:59.860Z,25.60
2018-06-03T17:25:31.027Z,25.60
2018-06-03T17:28:00.957Z,25.50
2018-06-03T17:30:31.961Z,25.60
2018-06-03T17:33:09.190Z,25.90
2018-06-03T17:35:38.881Z,26.20
2018-06-03T17:38:57.123Z,26.10
2018-06-03T17:41:27.508Z,25.70
2018-06-03T17:43:57.687Z,25.40
2018-06-03T17:46:29.345Z,25.10
2018-06-03T17:49:01.794Z,25.00
2018-06-03T17:51:34.797Z,25.00
2018-06-03T17:54:06.185Z,24.90
2018-06-03T17:56:36.466Z,24.80
2018-06-03T17:59:10.604Z,24.80
2018-06-03T18:01:44.143Z,24.70
2018-06-03T18:04:18.126Z,24.60
2018-06-03T18:06:48.970Z,24.50
2018-06-03T18:09:23.321Z,24.50
2018-06-03T18:11:54.627Z,24.30
2018-06-03T18:14:27.828Z,24.30
2018-06-03T18:17:00.565Z,24.20
2018-06-03T18:19:34.565Z,24.00
2018-06-03T18:22:05.105Z,24.00
2018-06-03T18:24:35.409Z,23.90
2018-06-03T18:27:08.740Z,23.80
2018-06-03T18:29:39.132Z,23.80
2018-06-03T18:32:14.716Z,23.70
2018-06-03T18:34:44.392Z,23.60
2018-06-03T18:37:14.210Z,23.60
2018-06-03T18:39:44.617Z,23.50
2018-06-03T18:42:15.261Z,23.40
2018-06-03T18:44:45.236Z,23.30
2018-06-03T18:47:15.315Z,23.30
2018-06-03T18:49:45.073Z,23.20
2018-06-03T18:52:16.325Z,23.10
2018-06-03T18:54:46.330Z,23.10
2018-06-03T18:57:16.616Z,23.00
2018-06-03T18:59:46.947Z,22.90
2018-06-03T19:02:16.780Z,22.90
2018-06-03T19:04:50.855Z,22.60
2018-06-03T19:07:21.069Z,22.50
2018-06-03T19:09:51.468Z,22.40
2018-06-03T19:12:21.466Z,22.30
2018-06-03T19:14:52.472Z,22.30
2018-06-03T19:17:22.696Z,22.20
2018-06-03T19:19:52.656Z,22.10
2018-06-03T19:22:22.516Z,21.90
2018-06-03T19:24:54.896Z,21.90
2018-06-03T19:27:24.607Z,21.90
2018-06-03T19:29:55.007Z,21.70
2018-06-03T19:32:25.708Z,21.70
2018-06-03T19:34:55.484Z,21.50
2018-06-03T19:37:25.345Z,21.30
2018-06-03T19:39:55.412Z,21.10
2018-06-03T19:42:26.607Z,20.90
2018-06-03T19:44:56.471Z,20.80
2018-06-03T19:47:28.701Z,20.80
2018-06-03T19:49:59.992Z,21.00
2018-06-03T19:52:30.304Z,20.90
2018-06-03T19:55:00.017Z,21.00
2018-06-03T19:57:31.931Z,20.70
2018-06-03T20:00:02.293Z,20.50
2018-06-03T20:02:32.509Z,20.50
2018-06-03T20:05:02.953Z,20.30
2018-06-03T20:07:33.936Z,20.20
2018-06-03T20:10:03.777Z,20.20
2018-06-03T20:12:36.928Z,20.30
2018-06-03T20:15:06.750Z,20.10
2018-06-03T20:17:37.712Z,19.80
2018-06-03T20:20:08.712Z,19.80
2018-06-03T20:22:38.658Z,19.70
2018-06-03T20:25:09.271Z,20.00
2018-06-03T20:27:39.835Z,20.00
2018-06-03T20:30:10.567Z,19.80
2018-06-03T20:32:40.264Z,19.80
2018-06-03T20:35:10.061Z,19.80
2018-06-03T20:37:40.348Z,19.70
2018-06-03T20:40:10.483Z,19.50
2018-06-03T20:42:40.828Z,19.40
2018-06-03T20:45:11.755Z,19.30
2018-06-03T20:47:41.981Z,19.20
2018-06-03T20:50:13.631Z,18.10
2018-06-03T20:52:45.657Z,19.10
2018-06-03T20:55:16.931Z,18.90
2018-06-03T20:57:48.237Z,19.10
2018-06-03T21:00:19.289Z,19.20
2018-06-03T21:02:49.809Z,19.20
2018-06-03T21:05:20.129Z,19.00
2018-06-03T21:07:50.075Z,18.90
2018-06-03T21:10:21.435Z,18.80
2018-06-03T21:12:50.937Z,18.90
2018-06-03T21:15:20.865Z,18.90
2018-06-03T21:17:50.340Z,18.80
2018-06-03T21:20:20.352Z,18.60
2018-06-03T21:22:50.488Z,18.50
2018-06-03T21:25:21.652Z,18.50
2018-06-03T21:27:51.804Z,18.70
2018-06-03T21:30:21.691Z,18.60
2018-06-03T21:32:51.654Z,18.60
2018-06-03T21:35:23.539Z,18.40
2018-06-03T21:37:53.743Z,18.40
2018-06-03T21:40:23.409Z,18.40
2018-06-03T21:42:53.597Z,18.30
2018-06-03T21:45:24.243Z,18.10
2018-06-03T21:47:54.196Z,18.20
2018-06-03T21:50:25.397Z,18.20
2018-06-03T21:52:55.228Z,18.30
2018-06-03T21:55:25.436Z,18.20
2018-06-03T21:57:56.161Z,18.00
2018-06-03T22:00:33.504Z,18.00
2018-06-03T22:03:05.963Z,18.00
2018-06-03T22:05:35.639Z,18.10
2018-06-03T22:08:05.485Z,18.30
2018-06-03T22:10:35.739Z,18.40
2018-06-03T22:13:05.556Z,18.50
2018-06-03T22:15:35.588Z,18.50
2018-06-03T22:18:05.321Z,18.20
2018-06-03T22:20:35.687Z,18.00
2018-06-03T22:23:06.781Z,17.80
2018-06-03T22:25:36.851Z,17.80
2018-06-03T22:28:07.175Z,17.70
2018-06-03T22:30:40.875Z,17.70
2018-06-03T22:33:11.312Z,17.70
2018-06-03T22:35:41.910Z,17.60
2018-06-03T22:38:12.044Z,17.40
2018-06-03T22:40:44.121Z,17.50
2018-06-03T22:43:14.147Z,17.40
2018-06-03T22:45:44.283Z,17.30
2018-06-03T22:48:14.596Z,17.20
2018-06-03T22:50:44.807Z,17.20
2018-06-03T22:53:15.945Z,17.40
2018-06-03T22:55:45.814Z,17.60
2018-06-03T22:58:17.671Z,17.70
2018-06-03T23:00:47.660Z,17.50
2018-06-03T23:03:17.458Z,17.60
2018-06-03T23:05:46.869Z,17.60
2018-06-03T23:08:16.845Z,17.50
2018-06-03T23:10:47.408Z,17.40
2018-06-03T23:13:17.755Z,17.40
2018-06-03T23:15:47.947Z,17.40
2018-06-03T23:18:18.181Z,17.20
2018-06-03T23:20:48.413Z,17.30
2018-06-03T23:23:18.732Z,17.30
2018-06-03T23:25:49.308Z,17.20
2018-06-03T23:28:19.180Z,17.00
2018-06-03T23:30:48.909Z,17.00
2018-06-03T23:33:19.167Z,17.20
2018-06-03T23:35:49.081Z,17.10
2018-06-03T23:38:18.529Z,17.00
2018-06-03T23:40:48.537Z,17.00
2018-06-03T23:43:18.395Z,17.00
2018-06-03T23:45:48.022Z,16.90
2018-06-03T23:48:17.827Z,17.10
2018-06-03T23:50:47.985Z,16.90
2018-06-03T23:53:17.680Z,16.90
2018-06-03T23:55:47.351Z,16.90
2018-06-03T23:58:17.574Z,16.80
